sensor_id;sensor_type;location;lat;lon;timestamp;P1;durP1;ratioP1;P2;durP2;ratioP2
64684;SDS011;51109;47.414;18.954;2024-03-23T00:51:20;33.25;;;21.17;;
64684;SDS011;51109;47.414;18.954;2024-03-23T00:56:13;35.88;;;21.05;;
64684;SDS011;51109;47.414;18.954;2024-03-23T00:58:39;32.78;;;20.05;;
64684;SDS011;51109;47.414;18.954;2024-03-23T01:01:05;31.60;;;19.88;;
64684;SDS011;51109;47.414;18.954;2024-03-23T01:03:30;36.72;;;20.35;;
64684;SDS011;51109;47.414;18.954;2024-03-23T01:06:00;43.13;;;22.40;;
64684;SDS011;51109;47.414;18.954;2024-03-23T01:08:26;39.97;;;22.90;;
64684;SDS011;51109;47.414;18.954;2024-03-23T01:10:55;35.85;;;21.05;;
64684;SDS011;51109;47.414;18.954;2024-03-23T01:13:22;38.55;;;21.63;;
64684;SDS011;51109;47.414;18.954;2024-03-23T01:15:52;38.38;;;21.60;;
64684;SDS011;51109;47.414;18.954;2024-03-23T01:18:19;39.60;;;22.70;;
64684;SDS011;51109;47.414;18.954;2024-03-23T01:20:45;47.28;;;23.92;;
64684;SDS011;51109;47.414;18.954;2024-03-23T01:23:11;36.72;;;22.90;;
64684;SDS011;51109;47.414;18.954;2024-03-23T01:25:37;41.42;;;23.88;;
64684;SDS011;51109;47.414;18.954;2024-03-23T01:28:04;41.53;;;23.77;;
64684;SDS011;51109;47.414;18.954;2024-03-23T01:30:31;38.85;;;23.42;;
64684;SDS011;51109;47.414;18.954;2024-03-23T01:32:58;40.88;;;24.52;;
64684;SDS011;51109;47.414;18.954;2024-03-23T01:35:24;40.60;;;23.02;;
64684;SDS011;51109;47.414;18.954;2024-03-23T01:37:49;41.78;;;24.05;;
64684;SDS011;51109;47.414;18.954;2024-03-23T01:40:18;47.33;;;26.33;;
64684;SDS011;51109;47.414;18.954;2024-03-23T01:43:04;44.88;;;26.98;;
64684;SDS011;51109;47.414;18.954;2024-03-23T01:45:30;45.47;;;25.98;;
64684;SDS011;51109;47.414;18.954;2024-03-23T01:47:58;48.17;;;27.15;;
64684;SDS011;51109;47.414;18.954;2024-03-23T01:50:24;51.33;;;29.13;;
64684;SDS011;51109;47.414;18.954;2024-03-23T01:52:50;50.95;;;28.95;;
64684;SDS011;51109;47.414;18.954;2024-03-23T01:55:16;51.00;;;29.48;;
64684;SDS011;51109;47.414;18.954;2024-03-23T01:57:42;53.05;;;29.98;;
64684;SDS011;51109;47.414;18.954;2024-03-23T02:02:46;53.87;;;28.73;;
64684;SDS011;51109;47.414;18.954;2024-03-23T02:05:12;59.17;;;30.55;;
64684;SDS011;51109;47.414;18.954;2024-03-23T02:07:39;59.65;;;29.95;;
64684;SDS011;51109;47.414;18.954;2024-03-23T02:10:09;56.85;;;31.10;;
64684;SDS011;51109;47.414;18.954;2024-03-23T02:12:36;65.70;;;32.97;;
64684;SDS011;51109;47.414;18.954;2024-03-23T02:15:02;52.97;;;31.13;;
64684;SDS011;51109;47.414;18.954;2024-03-23T02:17:29;59.22;;;32.08;;
64684;SDS011;51109;47.414;18.954;2024-03-23T02:19:56;57.35;;;32.42;;
64684;SDS011;51109;47.414;18.954;2024-03-23T02:22:22;55.97;;;32.33;;
64684;SDS011;51109;47.414;18.954;2024-03-23T02:24:47;62.38;;;32.70;;
64684;SDS011;51109;47.414;18.954;2024-03-23T02:27:13;55.35;;;32.08;;
64684;SDS011;51109;47.414;18.954;2024-03-23T02:29:39;62.72;;;34.60;;
64684;SDS011;51109;47.414;18.954;2024-03-23T02:32:05;63.28;;;33.58;;
64684;SDS011;51109;47.414;18.954;2024-03-23T02:34:31;61.17;;;34.60;;
64684;SDS011;51109;47.414;18.954;2024-03-23T02:36:57;60.65;;;34.05;;
64684;SDS011;51109;47.414;18.954;2024-03-23T02:39:23;63.05;;;34.85;;
64684;SDS011;51109;47.414;18.954;2024-03-23T02:41:48;59.10;;;32.65;;
64684;SDS011;51109;47.414;18.954;2024-03-23T02:44:14;61.00;;;33.33;;
64684;SDS011;51109;47.414;18.954;2024-03-23T02:46:40;54.50;;;31.45;;
64684;SDS011;51109;47.414;18.954;2024-03-23T02:49:07;58.03;;;33.05;;
64684;SDS011;51109;47.414;18.954;2024-03-23T02:51:33;61.80;;;32.88;;
64684;SDS011;51109;47.414;18.954;2024-03-23T02:53:58;55.80;;;31.75;;
64684;SDS011;51109;47.414;18.954;2024-03-23T02:56:24;53.35;;;31.75;;
64684;SDS011;51109;47.414;18.954;2024-03-23T02:58:50;51.03;;;30.52;;
64684;SDS011;51109;47.414;18.954;2024-03-23T03:01:16;65.25;;;33.05;;
64684;SDS011;51109;47.414;18.954;2024-03-23T03:03:42;59.90;;;34.03;;
64684;SDS011;51109;47.414;18.954;2024-03-23T03:06:07;60.75;;;33.30;;
64684;SDS011;51109;47.414;18.954;2024-03-23T03:08:33;58.67;;;33.38;;
64684;SDS011;51109;47.414;18.954;2024-03-23T03:10:59;59.88;;;32.78;;
64684;SDS011;51109;47.414;18.954;2024-03-23T03:13:25;59.10;;;32.72;;
64684;SDS011;51109;47.414;18.954;2024-03-23T03:15:50;56.25;;;33.65;;
64684;SDS011;51109;47.414;18.954;2024-03-23T03:18:16;56.85;;;33.45;;
64684;SDS011;51109;47.414;18.954;2024-03-23T03:20:42;60.55;;;33.47;;
64684;SDS011;51109;47.414;18.954;2024-03-23T03:23:09;60.70;;;34.08;;
64684;SDS011;51109;47.414;18.954;2024-03-23T03:25:35;56.80;;;32.88;;
64684;SDS011;51109;47.414;18.954;2024-03-23T03:28:00;53.38;;;32.50;;
64684;SDS011;51109;47.414;18.954;2024-03-23T03:30:27;55.20;;;31.10;;
64684;SDS011;51109;47.414;18.954;2024-03-23T03:32:53;55.83;;;31.73;;
64684;SDS011;51109;47.414;18.954;2024-03-23T03:35:19;60.03;;;33.95;;
64684;SDS011;51109;47.414;18.954;2024-03-23T03:37:45;59.30;;;31.75;;
64684;SDS011;51109;47.414;18.954;2024-03-23T03:40:11;58.45;;;31.58;;
64684;SDS011;51109;47.414;18.954;2024-03-23T03:42:38;56.20;;;31.17;;
64684;SDS011;51109;47.414;18.954;2024-03-23T03:45:04;60.67;;;33.33;;
64684;SDS011;51109;47.414;18.954;2024-03-23T03:47:30;57.08;;;32.88;;
64684;SDS011;51109;47.414;18.954;2024-03-23T03:49:56;61.10;;;34.55;;
64684;SDS011;51109;47.414;18.954;2024-03-23T03:52:22;61.30;;;34.10;;
64684;SDS011;51109;47.414;18.954;2024-03-23T03:54:47;60.53;;;34.60;;
64684;SDS011;51109;47.414;18.954;2024-03-23T03:57:13;56.40;;;33.28;;
64684;SDS011;51109;47.414;18.954;2024-03-23T03:59:39;62.97;;;34.85;;
64684;SDS011;51109;47.414;18.954;2024-03-23T04:02:05;64.38;;;34.72;;
64684;SDS011;51109;47.414;18.954;2024-03-23T04:04:30;58.55;;;33.97;;
64684;SDS011;51109;47.414;18.954;2024-03-23T04:07:02;59.65;;;35.00;;
64684;SDS011;51109;47.414;18.954;2024-03-23T04:09:28;66.80;;;37.10;;
64684;SDS011;51109;47.414;18.954;2024-03-23T04:11:53;68.65;;;36.75;;
64684;SDS011;51109;47.414;18.954;2024-03-23T04:14:19;59.80;;;35.40;;
64684;SDS011;51109;47.414;18.954;2024-03-23T04:16:45;60.03;;;35.22;;
64684;SDS011;51109;47.414;18.954;2024-03-23T04:19:11;60.60;;;34.72;;
64684;SDS011;51109;47.414;18.954;2024-03-23T04:21:37;58.58;;;33.65;;
64684;SDS011;51109;47.414;18.954;2024-03-23T04:24:03;60.00;;;34.17;;
64684;SDS011;51109;47.414;18.954;2024-03-23T04:26:30;66.63;;;36.08;;
64684;SDS011;51109;47.414;18.954;2024-03-23T04:28:55;63.38;;;36.45;;
64684;SDS011;51109;47.414;18.954;2024-03-23T04:31:21;59.10;;;34.90;;
64684;SDS011;51109;47.414;18.954;2024-03-23T04:33:47;54.83;;;34.10;;
64684;SDS011;51109;47.414;18.954;2024-03-23T04:36:13;65.15;;;36.63;;
64684;SDS011;51109;47.414;18.954;2024-03-23T04:38:38;59.17;;;36.08;;
64684;SDS011;51109;47.414;18.954;2024-03-23T04:41:04;62.72;;;36.67;;
64684;SDS011;51109;47.414;18.954;2024-03-23T04:43:30;59.92;;;36.17;;
64684;SDS011;51109;47.414;18.954;2024-03-23T04:45:56;59.33;;;35.53;;
64684;SDS011;51109;47.414;18.954;2024-03-23T04:48:22;62.38;;;35.10;;
64684;SDS011;51109;47.414;18.954;2024-03-23T04:50:48;63.65;;;36.90;;
64684;SDS011;51109;47.414;18.954;2024-03-23T04:53:15;54.83;;;33.35;;
64684;SDS011;51109;47.414;18.954;2024-03-23T04:55:43;57.58;;;35.17;;
64684;SDS011;51109;47.414;18.954;2024-03-23T04:58:09;59.40;;;33.63;;
64684;SDS011;51109;47.414;18.954;2024-03-23T05:00:35;62.30;;;33.78;;
64684;SDS011;51109;47.414;18.954;2024-03-23T05:03:01;58.08;;;34.67;;
64684;SDS011;51109;47.414;18.954;2024-03-23T05:05:26;62.13;;;34.25;;
64684;SDS011;51109;47.414;18.954;2024-03-23T05:07:52;55.33;;;34.50;;
64684;SDS011;51109;47.414;18.954;2024-03-23T05:10:18;55.60;;;33.72;;
64684;SDS011;51109;47.414;18.954;2024-03-23T05:12:44;52.53;;;32.15;;
64684;SDS011;51109;47.414;18.954;2024-03-23T05:15:10;59.45;;;33.30;;
64684;SDS011;51109;47.414;18.954;2024-03-23T05:17:38;56.83;;;33.42;;
64684;SDS011;51109;47.414;18.954;2024-03-23T05:20:04;61.25;;;34.80;;
64684;SDS011;51109;47.414;18.954;2024-03-23T05:22:35;57.08;;;33.83;;
64684;SDS011;51109;47.414;18.954;2024-03-23T05:25:01;57.03;;;33.58;;
64684;SDS011;51109;47.414;18.954;2024-03-23T05:27:30;59.55;;;33.78;;
64684;SDS011;51109;47.414;18.954;2024-03-23T05:29:57;57.00;;;32.75;;
64684;SDS011;51109;47.414;18.954;2024-03-23T05:32:23;52.22;;;33.17;;
64684;SDS011;51109;47.414;18.954;2024-03-23T05:34:49;51.97;;;32.83;;
64684;SDS011;51109;47.414;18.954;2024-03-23T05:37:20;53.35;;;32.13;;
64684;SDS011;51109;47.414;18.954;2024-03-23T05:39:47;48.50;;;31.67;;
64684;SDS011;51109;47.414;18.954;2024-03-23T05:42:15;56.50;;;33.83;;
64684;SDS011;51109;47.414;18.954;2024-03-23T05:44:42;47.38;;;30.73;;
64684;SDS011;51109;47.414;18.954;2024-03-23T05:47:12;52.63;;;30.60;;
64684;SDS011;51109;47.414;18.954;2024-03-23T05:49:39;47.60;;;29.30;;
64684;SDS011;51109;47.414;18.954;2024-03-23T05:52:07;45.60;;;29.67;;
64684;SDS011;51109;47.414;18.954;2024-03-23T05:54:34;47.17;;;30.00;;
64684;SDS011;51109;47.414;18.954;2024-03-23T05:57:00;54.78;;;31.08;;
64684;SDS011;51109;47.414;18.954;2024-03-23T05:59:25;50.70;;;31.33;;
64684;SDS011;51109;47.414;18.954;2024-03-23T06:01:52;47.25;;;30.52;;
64684;SDS011;51109;47.414;18.954;2024-03-23T06:04:18;47.22;;;29.77;;
64684;SDS011;51109;47.414;18.954;2024-03-23T06:06:44;49.38;;;29.98;;
64684;SDS011;51109;47.414;18.954;2024-03-23T06:09:11;46.30;;;28.70;;
64684;SDS011;51109;47.414;18.954;2024-03-23T06:11:37;44.90;;;28.50;;
64684;SDS011;51109;47.414;18.954;2024-03-23T06:14:03;47.97;;;27.20;;
64684;SDS011;51109;47.414;18.954;2024-03-23T06:16:29;46.40;;;28.10;;
64684;SDS011;51109;47.414;18.954;2024-03-23T06:18:56;49.90;;;26.83;;
64684;SDS011;51109;47.414;18.954;2024-03-23T06:21:21;47.97;;;27.02;;
64684;SDS011;51109;47.414;18.954;2024-03-23T06:23:51;46.42;;;27.27;;
64684;SDS011;51109;47.414;18.954;2024-03-23T06:26:18;43.33;;;27.90;;
64684;SDS011;51109;47.414;18.954;2024-03-23T06:28:44;39.75;;;26.08;;
64684;SDS011;51109;47.414;18.954;2024-03-23T06:31:10;42.95;;;26.08;;
64684;SDS011;51109;47.414;18.954;2024-03-23T06:33:36;37.88;;;24.83;;
64684;SDS011;51109;47.414;18.954;2024-03-23T06:36:02;43.33;;;25.58;;
64684;SDS011;51109;47.414;18.954;2024-03-23T06:38:29;37.67;;;24.67;;
64684;SDS011;51109;47.414;18.954;2024-03-23T06:40:55;39.55;;;24.75;;
64684;SDS011;51109;47.414;18.954;2024-03-23T06:43:21;35.38;;;23.88;;
64684;SDS011;51109;47.414;18.954;2024-03-23T06:45:53;35.30;;;24.00;;
64684;SDS011;51109;47.414;18.954;2024-03-23T06:48:19;36.17;;;24.43;;
64684;SDS011;51109;47.414;18.954;2024-03-23T06:50:45;36.80;;;24.00;;
64684;SDS011;51109;47.414;18.954;2024-03-23T06:53:14;39.08;;;25.10;;
64684;SDS011;51109;47.414;18.954;2024-03-23T06:55:40;37.95;;;23.88;;
64684;SDS011;51109;47.414;18.954;2024-03-23T06:58:07;41.97;;;25.25;;
64684;SDS011;51109;47.414;18.954;2024-03-23T07:00:33;40.90;;;26.25;;
64684;SDS011;51109;47.414;18.954;2024-03-23T07:02:59;37.80;;;25.17;;
64684;SDS011;51109;47.414;18.954;2024-03-23T07:05:25;44.17;;;26.27;;
64684;SDS011;51109;47.414;18.954;2024-03-23T07:07:51;41.53;;;26.55;;
64684;SDS011;51109;47.414;18.954;2024-03-23T07:10:17;40.80;;;25.58;;
64684;SDS011;51109;47.414;18.954;2024-03-23T07:12:43;36.53;;;23.40;;
64684;SDS011;51109;47.414;18.954;2024-03-23T07:15:09;33.85;;;23.70;;
64684;SDS011;51109;47.414;18.954;2024-03-23T07:17:35;36.40;;;23.15;;
64684;SDS011;51109;47.414;18.954;2024-03-23T07:20:03;31.08;;;22.65;;
64684;SDS011;51109;47.414;18.954;2024-03-23T07:22:30;34.20;;;23.08;;
64684;SDS011;51109;47.414;18.954;2024-03-23T07:24:56;32.75;;;22.80;;
64684;SDS011;51109;47.414;18.954;2024-03-23T07:27:24;37.45;;;23.88;;
64684;SDS011;51109;47.414;18.954;2024-03-23T07:29:51;37.38;;;24.13;;
64684;SDS011;51109;47.414;18.954;2024-03-23T07:32:17;34.53;;;24.00;;
64684;SDS011;51109;47.414;18.954;2024-03-23T07:34:42;34.50;;;24.02;;
64684;SDS011;51109;47.414;18.954;2024-03-23T07:37:09;30.83;;;22.55;;
64684;SDS011;51109;47.414;18.954;2024-03-23T07:39:36;33.65;;;23.23;;
64684;SDS011;51109;47.414;18.954;2024-03-23T07:42:02;37.30;;;23.88;;
64684;SDS011;51109;47.414;18.954;2024-03-23T07:44:27;36.05;;;24.40;;
64684;SDS011;51109;47.414;18.954;2024-03-23T07:46:53;36.13;;;25.17;;
64684;SDS011;51109;47.414;18.954;2024-03-23T07:49:19;32.03;;;22.08;;
64684;SDS011;51109;47.414;18.954;2024-03-23T07:51:45;34.50;;;23.80;;
64684;SDS011;51109;47.414;18.954;2024-03-23T07:54:10;32.17;;;23.63;;
64684;SDS011;51109;47.414;18.954;2024-03-23T07:56:36;31.33;;;22.20;;
64684;SDS011;51109;47.414;18.954;2024-03-23T07:59:02;30.75;;;22.05;;
64684;SDS011;51109;47.414;18.954;2024-03-23T08:01:30;28.83;;;21.85;;
64684;SDS011;51109;47.414;18.954;2024-03-23T08:03:56;34.15;;;21.38;;
64684;SDS011;51109;47.414;18.954;2024-03-23T08:06:22;31.75;;;21.88;;
64684;SDS011;51109;47.414;18.954;2024-03-23T08:08:50;32.90;;;21.40;;
64684;SDS011;51109;47.414;18.954;2024-03-23T08:11:28;31.40;;;21.40;;
64684;SDS011;51109;47.414;18.954;2024-03-23T08:13:55;33.25;;;22.83;;
64684;SDS011;51109;47.414;18.954;2024-03-23T08:16:21;32.60;;;22.77;;
64684;SDS011;51109;47.414;18.954;2024-03-23T08:18:47;31.33;;;22.15;;
64684;SDS011;51109;47.414;18.954;2024-03-23T08:21:13;32.67;;;22.70;;
64684;SDS011;51109;47.414;18.954;2024-03-23T08:23:39;35.13;;;22.65;;
64684;SDS011;51109;47.414;18.954;2024-03-23T08:26:06;29.42;;;22.25;;
64684;SDS011;51109;47.414;18.954;2024-03-23T08:28:33;35.97;;;23.35;;
64684;SDS011;51109;47.414;18.954;2024-03-23T08:31:09;33.58;;;22.92;;
64684;SDS011;51109;47.414;18.954;2024-03-23T08:33:37;34.42;;;22.30;;
64684;SDS011;51109;47.414;18.954;2024-03-23T08:36:07;31.00;;;21.17;;
64684;SDS011;51109;47.414;18.954;2024-03-23T08:38:33;30.48;;;21.48;;
64684;SDS011;51109;47.414;18.954;2024-03-23T08:41:03;31.95;;;21.88;;
64684;SDS011;51109;47.414;18.954;2024-03-23T08:43:40;33.78;;;21.52;;
64684;SDS011;51109;47.414;18.954;2024-03-23T08:46:07;31.02;;;20.25;;
64684;SDS011;51109;47.414;18.954;2024-03-23T08:48:40;32.55;;;19.92;;
64684;SDS011;51109;47.414;18.954;2024-03-23T08:51:08;25.38;;;18.58;;
64684;SDS011;51109;47.414;18.954;2024-03-23T08:53:35;22.85;;;17.10;;
64684;SDS011;51109;47.414;18.954;2024-03-23T08:56:01;25.60;;;17.40;;
64684;SDS011;51109;47.414;18.954;2024-03-23T08:58:28;23.20;;;16.00;;
64684;SDS011;51109;47.414;18.954;2024-03-23T09:00:56;24.40;;;16.55;;
64684;SDS011;51109;47.414;18.954;2024-03-23T09:03:28;20.52;;;15.43;;
64684;SDS011;51109;47.414;18.954;2024-03-23T09:05:54;20.90;;;14.80;;
64684;SDS011;51109;47.414;18.954;2024-03-23T09:08:20;19.15;;;13.70;;
64684;SDS011;51109;47.414;18.954;2024-03-23T09:10:47;18.75;;;14.48;;
64684;SDS011;51109;47.414;18.954;2024-03-23T09:13:13;18.92;;;13.57;;
64684;SDS011;51109;47.414;18.954;2024-03-23T09:15:46;20.70;;;11.95;;
64684;SDS011;51109;47.414;18.954;2024-03-23T09:18:13;19.75;;;11.23;;
64684;SDS011;51109;47.414;18.954;2024-03-23T09:20:39;18.83;;;11.93;;
64684;SDS011;51109;47.414;18.954;2024-03-23T09:23:05;19.08;;;11.57;;
64684;SDS011;51109;47.414;18.954;2024-03-23T09:25:31;15.43;;;10.20;;
64684;SDS011;51109;47.414;18.954;2024-03-23T09:27:57;12.35;;;9.77;;
64684;SDS011;51109;47.414;18.954;2024-03-23T09:30:23;15.32;;;9.98;;
64684;SDS011;51109;47.414;18.954;2024-03-23T09:32:49;13.15;;;8.73;;
64684;SDS011;51109;47.414;18.954;2024-03-23T09:35:15;13.38;;;8.45;;
64684;SDS011;51109;47.414;18.954;2024-03-23T09:37:41;11.30;;;7.68;;
64684;SDS011;51109;47.414;18.954;2024-03-23T09:40:10;12.93;;;8.32;;
64684;SDS011;51109;47.414;18.954;2024-03-23T09:42:36;13.93;;;8.30;;
64684;SDS011;51109;47.414;18.954;2024-03-23T09:45:05;11.02;;;7.65;;
64684;SDS011;51109;47.414;18.954;2024-03-23T09:47:34;12.23;;;7.97;;
64684;SDS011;51109;47.414;18.954;2024-03-23T09:50:00;10.25;;;7.45;;
64684;SDS011;51109;47.414;18.954;2024-03-23T09:52:26;12.27;;;8.00;;
64684;SDS011;51109;47.414;18.954;2024-03-23T09:54:52;13.07;;;7.88;;
64684;SDS011;51109;47.414;18.954;2024-03-23T09:57:18;12.45;;;7.22;;
64684;SDS011;51109;47.414;18.954;2024-03-23T09:59:43;13.30;;;8.20;;
64684;SDS011;51109;47.414;18.954;2024-03-23T10:02:09;10.85;;;7.15;;
64684;SDS011;51109;47.414;18.954;2024-03-23T10:04:37;13.65;;;8.50;;
64684;SDS011;51109;47.414;18.954;2024-03-23T10:07:14;8.82;;;6.80;;
64684;SDS011;51109;47.414;18.954;2024-03-23T10:09:47;11.57;;;6.80;;
64684;SDS011;51109;47.414;18.954;2024-03-23T10:12:14;12.68;;;7.15;;
64684;SDS011;51109;47.414;18.954;2024-03-23T10:14:42;14.20;;;6.93;;
64684;SDS011;51109;47.414;18.954;2024-03-23T10:17:12;11.23;;;6.95;;
64684;SDS011;51109;47.414;18.954;2024-03-23T10:22:19;12.23;;;7.57;;
64684;SDS011;51109;47.414;18.954;2024-03-23T10:24:49;10.00;;;6.40;;
64684;SDS011;51109;47.414;18.954;2024-03-23T10:27:16;9.90;;;5.93;;
64684;SDS011;51109;47.414;18.954;2024-03-23T10:29:53;9.85;;;6.28;;
64684;SDS011;51109;47.414;18.954;2024-03-23T10:32:32;8.50;;;5.85;;
64684;SDS011;51109;47.414;18.954;2024-03-23T10:35:13;9.43;;;5.80;;
64684;SDS011;51109;47.414;18.954;2024-03-23T10:37:40;9.23;;;6.07;;
64684;SDS011;51109;47.414;18.954;2024-03-23T10:40:07;10.23;;;6.38;;
64684;SDS011;51109;47.414;18.954;2024-03-23T10:42:38;7.15;;;5.75;;
64684;SDS011;51109;47.414;18.954;2024-03-23T10:45:05;8.48;;;5.38;;
64684;SDS011;51109;47.414;18.954;2024-03-23T10:47:33;8.85;;;5.50;;
64684;SDS011;51109;47.414;18.954;2024-03-23T10:50:00;8.65;;;4.95;;
64684;SDS011;51109;47.414;18.954;2024-03-23T10:52:27;10.02;;;4.68;;
64684;SDS011;51109;47.414;18.954;2024-03-23T10:54:53;6.25;;;4.90;;
64684;SDS011;51109;47.414;18.954;2024-03-23T10:57:23;7.38;;;4.90;;
64684;SDS011;51109;47.414;18.954;2024-03-23T10:59:57;6.97;;;4.78;;
64684;SDS011;51109;47.414;18.954;2024-03-23T11:02:23;7.88;;;4.75;;
64684;SDS011;51109;47.414;18.954;2024-03-23T11:04:52;8.13;;;4.90;;
64684;SDS011;51109;47.414;18.954;2024-03-23T11:09:50;8.00;;;5.15;;
64684;SDS011;51109;47.414;18.954;2024-03-23T11:14:50;7.28;;;4.47;;
64684;SDS011;51109;47.414;18.954;2024-03-23T11:17:21;7.32;;;4.40;;
64684;SDS011;51109;47.414;18.954;2024-03-23T11:20:00;10.07;;;5.15;;
64684;SDS011;51109;47.414;18.954;2024-03-23T11:25:04;8.98;;;4.70;;
64684;SDS011;51109;47.414;18.954;2024-03-23T11:27:37;9.63;;;4.75;;
64684;SDS011;51109;47.414;18.954;2024-03-23T11:30:10;8.40;;;4.55;;
64684;SDS011;51109;47.414;18.954;2024-03-23T11:32:48;8.15;;;4.65;;
64684;SDS011;51109;47.414;18.954;2024-03-23T11:35:24;5.55;;;4.53;;
64684;SDS011;51109;47.414;18.954;2024-03-23T11:38:09;9.88;;;4.85;;
64684;SDS011;51109;47.414;18.954;2024-03-23T11:40:43;8.05;;;4.53;;
64684;SDS011;51109;47.414;18.954;2024-03-23T11:43:16;10.23;;;5.00;;
64684;SDS011;51109;47.414;18.954;2024-03-23T11:48:09;7.25;;;4.93;;
64684;SDS011;51109;47.414;18.954;2024-03-23T11:50:40;12.35;;;4.38;;
64684;SDS011;51109;47.414;18.954;2024-03-23T11:55:47;5.90;;;3.90;;
64684;SDS011;51109;47.414;18.954;2024-03-23T11:58:14;5.57;;;3.70;;
64684;SDS011;51109;47.414;18.954;2024-03-23T12:00:41;6.90;;;4.22;;
64684;SDS011;51109;47.414;18.954;2024-03-23T12:03:13;5.55;;;3.80;;
64684;SDS011;51109;47.414;18.954;2024-03-23T12:05:41;7.90;;;3.75;;
64684;SDS011;51109;47.414;18.954;2024-03-23T12:10:49;5.45;;;3.45;;
64684;SDS011;51109;47.414;18.954;2024-03-23T12:13:17;3.72;;;2.97;;
64684;SDS011;51109;47.414;18.954;2024-03-23T12:15:44;4.93;;;3.05;;
64684;SDS011;51109;47.414;18.954;2024-03-23T12:18:11;6.75;;;3.55;;
64684;SDS011;51109;47.414;18.954;2024-03-23T12:20:37;6.38;;;3.67;;
64684;SDS011;51109;47.414;18.954;2024-03-23T12:23:04;5.63;;;3.67;;
64684;SDS011;51109;47.414;18.954;2024-03-23T12:25:31;6.10;;;3.65;;
64684;SDS011;51109;47.414;18.954;2024-03-23T12:27:58;5.30;;;3.47;;
64684;SDS011;51109;47.414;18.954;2024-03-23T12:30:24;4.25;;;3.20;;
64684;SDS011;51109;47.414;18.954;2024-03-23T12:32:50;3.22;;;2.85;;
64684;SDS011;51109;47.414;18.954;2024-03-23T12:35:16;6.28;;;3.20;;
64684;SDS011;51109;47.414;18.954;2024-03-23T12:37:43;5.18;;;3.35;;
64684;SDS011;51109;47.414;18.954;2024-03-23T12:40:09;4.20;;;3.13;;
64684;SDS011;51109;47.414;18.954;2024-03-23T12:42:35;4.32;;;3.08;;
64684;SDS011;51109;47.414;18.954;2024-03-23T12:45:01;5.18;;;3.00;;
64684;SDS011;51109;47.414;18.954;2024-03-23T12:47:29;2.65;;;2.45;;
64684;SDS011;51109;47.414;18.954;2024-03-23T12:49:55;5.75;;;2.90;;
64684;SDS011;51109;47.414;18.954;2024-03-23T12:52:21;3.58;;;3.10;;
64684;SDS011;51109;47.414;18.954;2024-03-23T12:54:49;5.97;;;3.30;;
64684;SDS011;51109;47.414;18.954;2024-03-23T12:57:15;4.25;;;3.08;;
64684;SDS011;51109;47.414;18.954;2024-03-23T12:59:40;5.97;;;3.42;;
64684;SDS011;51109;47.414;18.954;2024-03-23T13:02:06;3.63;;;3.05;;
64684;SDS011;51109;47.414;18.954;2024-03-23T13:04:32;6.93;;;3.83;;
64684;SDS011;51109;47.414;18.954;2024-03-23T13:06:58;19.05;;;6.07;;
64684;SDS011;51109;47.414;18.954;2024-03-23T13:09:24;6.97;;;3.63;;
64684;SDS011;51109;47.414;18.954;2024-03-23T13:11:49;5.65;;;3.30;;
64684;SDS011;51109;47.414;18.954;2024-03-23T13:14:15;4.65;;;3.28;;
64684;SDS011;51109;47.414;18.954;2024-03-23T13:16:42;4.60;;;3.28;;
64684;SDS011;51109;47.414;18.954;2024-03-23T13:19:08;4.22;;;3.30;;
64684;SDS011;51109;47.414;18.954;2024-03-23T13:21:33;4.95;;;3.38;;
64684;SDS011;51109;47.414;18.954;2024-03-23T13:23:59;8.27;;;2.55;;
64684;SDS011;51109;47.414;18.954;2024-03-23T13:26:25;3.95;;;2.60;;
64684;SDS011;51109;47.414;18.954;2024-03-23T13:28:51;9.70;;;3.63;;
64684;SDS011;51109;47.414;18.954;2024-03-23T13:31:17;15.57;;;3.65;;
64684;SDS011;51109;47.414;18.954;2024-03-23T13:33:43;10.38;;;3.40;;
64684;SDS011;51109;47.414;18.954;2024-03-23T13:36:09;11.48;;;2.95;;
64684;SDS011;51109;47.414;18.954;2024-03-23T13:38:35;6.68;;;2.80;;
64684;SDS011;51109;47.414;18.954;2024-03-23T13:41:01;3.78;;;3.13;;
64684;SDS011;51109;47.414;18.954;2024-03-23T13:43:29;4.25;;;2.50;;
64684;SDS011;51109;47.414;18.954;2024-03-23T13:45:56;4.28;;;2.42;;
64684;SDS011;51109;47.414;18.954;2024-03-23T13:48:23;4.97;;;2.58;;
64684;SDS011;51109;47.414;18.954;2024-03-23T13:50:56;5.13;;;2.80;;
64684;SDS011;51109;47.414;18.954;2024-03-23T13:53:23;9.07;;;2.88;;
64684;SDS011;51109;47.414;18.954;2024-03-23T13:55:49;5.45;;;2.65;;
64684;SDS011;51109;47.414;18.954;2024-03-23T13:58:15;9.10;;;3.20;;
64684;SDS011;51109;47.414;18.954;2024-03-23T14:00:41;4.78;;;2.63;;
64684;SDS011;51109;47.414;18.954;2024-03-23T14:03:10;4.43;;;2.95;;
64684;SDS011;51109;47.414;18.954;2024-03-23T14:05:37;9.00;;;3.20;;
64684;SDS011;51109;47.414;18.954;2024-03-23T14:08:07;6.82;;;3.50;;
64684;SDS011;51109;47.414;18.954;2024-03-23T14:10:34;8.48;;;3.22;;
64684;SDS011;51109;47.414;18.954;2024-03-23T14:13:03;10.25;;;3.78;;
64684;SDS011;51109;47.414;18.954;2024-03-23T14:15:29;3.28;;;2.33;;
64684;SDS011;51109;47.414;18.954;2024-03-23T14:17:58;4.25;;;2.47;;
64684;SDS011;51109;47.414;18.954;2024-03-23T14:20:24;9.35;;;2.85;;
64684;SDS011;51109;47.414;18.954;2024-03-23T14:22:51;6.30;;;3.15;;
64684;SDS011;51109;47.414;18.954;2024-03-23T14:25:17;5.30;;;3.17;;
64684;SDS011;51109;47.414;18.954;2024-03-23T14:27:44;4.85;;;2.95;;
64684;SDS011;51109;47.414;18.954;2024-03-23T14:30:10;5.47;;;3.38;;
64684;SDS011;51109;47.414;18.954;2024-03-23T14:32:37;6.95;;;3.63;;
64684;SDS011;51109;47.414;18.954;2024-03-23T14:35:03;14.77;;;4.10;;
64684;SDS011;51109;47.414;18.954;2024-03-23T14:37:30;7.93;;;2.80;;
64684;SDS011;51109;47.414;18.954;2024-03-23T14:39:56;5.90;;;2.95;;
64684;SDS011;51109;47.414;18.954;2024-03-23T14:42:23;6.75;;;3.17;;
64684;SDS011;51109;47.414;18.954;2024-03-23T14:44:49;7.85;;;4.03;;
64684;SDS011;51109;47.414;18.954;2024-03-23T14:47:17;6.85;;;4.47;;
64684;SDS011;51109;47.414;18.954;2024-03-23T14:49:43;7.95;;;3.60;;
64684;SDS011;51109;47.414;18.954;2024-03-23T14:52:18;12.30;;;5.13;;
64684;SDS011;51109;47.414;18.954;2024-03-23T14:54:44;9.02;;;5.82;;
64684;SDS011;51109;47.414;18.954;2024-03-23T14:57:11;11.13;;;6.05;;
64684;SDS011;51109;47.414;18.954;2024-03-23T14:59:37;9.27;;;5.63;;
64684;SDS011;51109;47.414;18.954;2024-03-23T15:02:04;10.05;;;4.80;;
64684;SDS011;51109;47.414;18.954;2024-03-23T15:04:30;8.43;;;4.85;;
64684;SDS011;51109;47.414;18.954;2024-03-23T15:06:56;6.80;;;4.75;;
64684;SDS011;51109;47.414;18.954;2024-03-23T15:09:22;12.45;;;4.32;;
64684;SDS011;51109;47.414;18.954;2024-03-23T15:11:47;8.20;;;4.18;;
64684;SDS011;51109;47.414;18.954;2024-03-23T15:14:13;7.15;;;3.92;;
64684;SDS011;51109;47.414;18.954;2024-03-23T15:16:39;6.20;;;4.22;;
64684;SDS011;51109;47.414;18.954;2024-03-23T15:19:07;6.45;;;4.53;;
64684;SDS011;51109;47.414;18.954;2024-03-23T15:21:33;7.07;;;4.47;;
64684;SDS011;51109;47.414;18.954;2024-03-23T15:23:59;7.07;;;3.97;;
64684;SDS011;51109;47.414;18.954;2024-03-23T15:26:26;9.75;;;4.72;;
64684;SDS011;51109;47.414;18.954;2024-03-23T15:28:51;7.68;;;4.60;;
64684;SDS011;51109;47.414;18.954;2024-03-23T15:31:23;13.55;;;5.22;;